Time;durP1;ratioP1;P1;durP2;ratioP2;P2;SDS_P1;SDS_P2;PMS_P1;PMS_P2;Temp;Humidity;BMP_temperature;BMP_pressure;BME280_temperature;BME280_humidity;BME280_pressure;Samples;Min_cycle;Max_cycle;Signal;HPM_P1;HPM_P2
2021/04/13 00:01:11;;;;;;;24.37;12.00;;;10.40;88.80;;;;;;4159672;28;20026;-62
2021/04/13 00:03:13;;;;;;;23.47;13.53;;;10.40;90.00;;;;;;4160292;28;20033;-62
2021/04/13 00:05:28;;;;;;;24.10;9.83;;;10.40;89.70;;;;;;4157701;28;20049;-67
2021/04/13 00:07:30;;;;;;;20.67;10.37;;;10.30;90.40;;;;;;4160573;28;20055;-67
2021/04/13 00:09:33;;;;;;;21.63;11.93;;;10.10;91.00;;;;;;4159459;28;20095;-66
2021/04/13 00:11:36;;;;;;;18.90;10.80;;;9.90;91.20;;;;;;4158457;28;20050;-66
2021/04/13 00:13:41;;;;;;;23.97;11.60;;;9.70;92.10;;;;;;4159236;28;20034;-65
2021/04/13 00:15:50;;;;;;;23.90;12.23;;;9.50;93.80;;;;;;4160367;28;20029;-66
2021/04/13 00:32:46;;;;;;;26.47;13.40;;;9.10;98.20;;;;;;4143210;28;20088;-67
2021/04/13 00:35:08;;;;;;;27.83;13.97;;;9.20;97.10;;;;;;4142764;28;20033;-64
2021/04/13 00:37:25;;;;;;;24.20;15.00;;;9.20;97.00;;;;;;4149600;28;20383;-60
2021/04/13 00:39:29;;;;;;;25.67;14.27;;;9.20;97.40;;;;;;4159032;28;20088;-62
2021/04/13 00:41:31;;;;;;;25.37;14.13;;;9.20;97.40;;;;;;4160027;28;20041;-64
2021/04/13 00:43:33;;;;;;;26.20;14.07;;;9.30;97.50;;;;;;4157710;28;20870;-67
2021/04/13 00:45:39;;;;;;;25.83;13.53;;;9.30;97.70;;;;;;4159756;28;20577;-62
2021/04/13 00:47:43;;;;;;;23.17;13.60;;;9.30;97.80;;;;;;4158609;28;20729;-61
2021/04/13 00:49:49;;;;;;;31.70;13.90;;;9.30;97.80;;;;;;4158885;28;20095;-61
2021/04/13 00:51:55;;;;;;;23.97;12.13;;;9.30;98.00;;;;;;4158885;28;20154;-57
2021/04/13 00:54:03;;;;;;;26.33;14.17;;;9.30;97.80;;;;;;4159238;28;20083;-62
2021/04/13 00:56:09;;;;;;;23.60;13.20;;;9.30;98.30;;;;;;4159076;28;20041;-63
2021/04/13 00:58:37;;;;;;;24.87;13.87;;;9.30;98.30;;;;;;4156042;28;20103;-59
2021/04/13 01:00:48;;;;;;;26.40;13.20;;;9.30;99.10;;;;;;4158493;28;20638;-62
2021/04/13 01:02:49;;;;;;;25.33;13.30;;;9.20;98.70;;;;;;4159116;28;20539;-65
2021/04/13 01:05:02;;;;;;;28.53;12.90;;;9.30;98.70;;;;;;4158678;28;20091;-61
2021/04/13 01:07:17;;;;;;;26.13;13.87;;;9.30;98.60;;;;;;4158848;28;20021;-60
2021/04/13 01:09:22;;;;;;;20.83;11.63;;;9.30;98.80;;;;;;4158345;28;20025;-61
2021/04/13 01:11:26;;;;;;;28.77;13.97;;;9.30;98.40;;;;;;4158925;28;20084;-62
2021/04/13 01:13:39;;;;;;;27.47;13.50;;;9.30;98.30;;;;;;4158044;28;20045;-61
2021/04/13 01:15:44;;;;;;;27.53;13.03;;;9.30;98.70;;;;;;4158878;28;20030;-58
2021/04/13 01:17:45;;;;;;;26.17;13.17;;;9.30;98.30;;;;;;4158353;28;20029;-60
2021/04/13 01:19:55;;;;;;;28.73;12.87;;;9.30;98.40;;;;;;4158686;28;20026;-60
2021/04/13 01:22:30;;;;;;;24.48;12.63;;;9.30;98.80;;;;;;4157292;28;20041;-61
2021/04/13 01:24:36;;;;;;;28.17;13.30;;;9.20;98.70;;;;;;4158628;28;20079;-63
2021/04/13 01:26:42;;;;;;;27.63;14.13;;;9.20;98.70;;;;;;4158161;28;20029;-61
2021/04/13 01:28:45;;;;;;;26.30;12.53;;;9.20;98.70;;;;;;4159339;28;20025;-64
2021/04/13 01:30:50;;;;;;;23.87;12.77;;;9.20;98.80;;;;;;4158119;28;20049;-61
2021/04/13 01:32:51;;;;;;;25.30;12.67;;;9.20;98.70;;;;;;4158552;28;20091;-61
2021/04/13 01:35:06;;;;;;;27.70;12.40;;;9.20;98.80;;;;;;4158557;28;20029;-62
2021/04/13 01:37:34;;;;;;;26.33;12.30;;;9.20;99.00;;;;;;4159267;28;20072;-64
2021/04/13 01:39:45;;;;;;;24.70;11.97;;;9.20;99.10;;;;;;4159889;28;20078;-64
2021/04/13 01:43:56;;;;;;;27.37;11.13;;;9.10;99.60;;;;;;4157719;28;20029;-65
2021/04/13 01:45:59;;;;;;;22.70;11.27;;;9.10;99.80;;;;;;4158594;28;20420;-61
2021/04/13 01:48:03;;;;;;;21.83;12.10;;;9.00;99.90;;;;;;4157973;28;20034;-61
2021/04/13 01:50:18;;;;;;;15.83;10.40;;;9.00;99.90;;;;;;4157862;28;20424;-61
2021/04/13 01:52:32;;;;;;;26.80;12.47;;;8.90;99.90;;;;;;4158245;28;20509;-61
2021/04/13 01:54:36;;;;;;;23.33;13.00;;;8.90;99.90;;;;;;4158161;28;20425;-65
2021/04/13 01:57:10;;;;;;;28.50;12.40;;;8.80;99.90;;;;;;4157379;28;20445;-60
2021/04/13 01:59:53;;;;;;;21.33;12.50;;;8.70;99.90;;;;;;4158761;28;20037;-62
2021/04/13 02:02:01;;;;;;;22.50;11.93;;;8.70;99.90;;;;;;4142133;28;20088;-64
2021/04/13 02:04:13;;;;;;;23.07;11.23;;;8.70;99.90;;;;;;4157705;28;20029;-64
2021/04/13 02:06:22;;;;;;;23.43;13.03;;;8.70;99.90;;;;;;4157253;28;20073;-62
2021/04/13 02:08:33;;;;;;;33.10;14.27;;;8.80;99.90;;;;;;4158553;28;20079;-63
2021/04/13 02:10:39;;;;;;;22.37;12.17;;;8.80;99.90;;;;;;4156525;28;20038;-58
2021/04/13 02:12:43;;;;;;;25.30;12.93;;;8.80;99.90;;;;;;4158149;28;20037;-62
2021/04/13 02:15:06;;;;;;;25.33;13.10;;;8.80;99.90;;;;;;4157775;28;20148;-61
2021/04/13 02:17:15;;;;;;;25.93;13.07;;;8.70;99.90;;;;;;4158428;28;20050;-62
2021/04/13 02:19:17;;;;;;;26.70;12.77;;;8.70;99.90;;;;;;4157438;28;20489;-62
2021/04/13 02:21:36;;;;;;;31.73;13.00;;;8.70;99.90;;;;;;4158421;28;20026;-61
2021/04/13 02:23:47;;;;;;;23.60;12.40;;;8.70;99.90;;;;;;4157018;28;20030;-62
2021/04/13 02:25:49;;;;;;;24.27;13.30;;;8.70;99.90;;;;;;4158185;28;20037;-62
2021/04/13 02:27:50;;;;;;;23.67;12.73;;;8.70;99.90;;;;;;4157358;28;20042;-60
2021/04/13 02:29:54;;;;;;;24.40;12.47;;;8.80;99.90;;;;;;4158088;28;20091;-61
2021/04/13 02:32:09;;;;;;;27.37;13.83;;;8.70;99.90;;;;;;4156688;28;20087;-62
2021/04/13 02:34:37;;;;;;;32.47;15.03;;;8.70;99.90;;;;;;4158420;28;20045;-61
2021/04/13 02:36:40;;;;;;;25.10;13.80;;;8.60;99.90;;;;;;4154494;28;20509;-61
2021/04/13 02:38:46;;;;;;;30.27;15.13;;;8.60;99.90;;;;;;4157962;28;20045;-61
2021/04/13 02:41:09;;;;;;;27.23;14.97;;;8.50;99.90;;;;;;4156167;28;20083;-64
2021/04/13 02:43:18;;;;;;;32.03;15.07;;;8.50;99.90;;;;;;4157128;28;20034;-57
2021/04/13 02:45:28;;;;;;;36.17;16.73;;;8.50;99.90;;;;;;4157017;28;20795;-67
2021/04/13 02:47:33;;;;;;;36.47;15.37;;;8.60;99.90;;;;;;4157780;28;20091;-62
2021/04/13 02:49:39;;;;;;;26.40;14.73;;;8.70;99.90;;;;;;4157129;28;20099;-61
2021/04/13 02:51:54;;;;;;;32.63;16.20;;;8.70;99.90;;;;;;4157654;28;20115;-62
2021/04/13 02:53:57;;;;;;;34.87;15.60;;;8.60;99.90;;;;;;4156732;28;20087;-61
2021/04/13 02:56:00;;;;;;;32.90;17.03;;;8.60;99.90;;;;;;4157333;28;20041;-61
2021/04/13 02:58:06;;;;;;;30.70;16.33;;;8.60;99.90;;;;;;4156493;28;20485;-61
2021/04/13 03:00:17;;;;;;;31.03;15.80;;;8.60;99.90;;;;;;4158033;28;20021;-57
2021/04/13 03:02:38;;;;;;;35.30;15.20;;;8.60;99.90;;;;;;4155741;28;20045;-61
2021/04/13 03:04:40;;;;;;;;;;;8.60;99.90;;;;;;4157374;28;20646;-62
2021/04/13 03:06:51;;;;;;;27.10;14.43;;;8.60;99.90;;;;;;4157065;28;19979;-63
2021/04/13 03:08:52;;;;;;;33.08;15.82;;;8.60;99.90;;;;;;4157600;28;20791;-59
2021/04/13 03:11:05;;;;;;;26.53;14.17;;;8.60;99.90;;;;;;4156041;28;20085;-64
2021/04/13 03:13:13;;;;;;;28.20;15.17;;;8.60;99.90;;;;;;4157411;28;20033;-62
2021/04/13 03:15:19;;;;;;;29.20;15.20;;;8.60;99.90;;;;;;4156556;28;20799;-60
2021/04/13 03:17:26;;;;;;;29.87;14.43;;;8.50;99.90;;;;;;4157661;28;20087;-61
2021/04/13 03:19:29;;;;;;;31.27;15.37;;;8.60;99.90;;;;;;4156944;28;20477;-61
2021/04/13 03:21:35;;;;;;;30.90;14.77;;;8.50;99.90;;;;;;4156971;28;20382;-61
2021/04/13 03:23:37;;;;;;;26.40;15.37;;;8.60;99.90;;;;;;4156850;28;20025;-62
2021/04/13 03:25:47;;;;;;;31.93;15.53;;;8.60;99.90;;;;;;4156923;28;20081;-58
2021/04/13 03:27:49;;;;;;;23.00;14.23;;;8.60;99.90;;;;;;4139948;28;20482;-63
2021/04/13 03:30:04;;;;;;;28.27;15.30;;;8.50;99.90;;;;;;4146302;28;20033;-61
2021/04/13 03:32:07;;;;;;;27.83;14.60;;;8.60;99.90;;;;;;4155746;28;20448;-58
2021/04/13 03:34:08;;;;;;;31.83;16.80;;;8.50;99.90;;;;;;4156718;28;20033;-63
2021/04/13 03:36:19;;;;;;;30.97;15.00;;;8.50;99.90;;;;;;4156304;28;20108;-62
2021/04/13 03:38:23;;;;;;;29.00;14.65;;;8.50;99.90;;;;;;4156841;28;20029;-66
2021/04/13 03:40:28;;;;;;;28.87;15.07;;;8.50;99.90;;;;;;4156860;28;20103;-66
2021/04/13 03:42:31;;;;;;;33.90;15.87;;;8.40;99.90;;;;;;4156134;28;20449;-66
2021/04/13 03:44:37;;;;;;;29.43;15.30;;;8.30;99.90;;;;;;4156892;28;20017;-64
2021/04/13 03:46:39;;;;;;;34.27;16.00;;;8.20;99.90;;;;;;4155970;28;20075;-67
2021/04/13 03:48:47;;;;;;;29.30;16.43;;;8.20;99.90;;;;;;4157163;28;20119;-66
2021/04/13 03:50:58;;;;;;;32.03;17.30;;;8.10;99.90;;;;;;4155518;28;20438;-66
2021/04/13 03:53:12;;;;;;;35.57;16.70;;;8.10;99.90;;;;;;4155370;28;20042;-58
2021/04/13 03:55:13;;;;;;;37.13;17.43;;;8.10;99.90;;;;;;4156194;28;20038;-62
2021/04/13 03:57:28;;;;;;;40.20;18.70;;;8.10;99.90;;;;;;4156688;28;20125;-60
2021/04/13 03:59:33;;;;;;;40.30;17.50;;;8.10;99.90;;;;;;4156046;28;20049;-64
2021/04/13 04:01:35;;;;;;;47.67;18.33;;;8.10;99.90;;;;;;4155968;28;20030;-61
2021/04/13 04:03:40;;;;;;;46.53;19.80;;;8.10;99.90;;;;;;4155616;28;20140;-61
2021/04/13 04:05:52;;;;;;;40.00;18.50;;;8.10;99.90;;;;;;4157037;28;20033;-61
2021/04/13 04:08:05;;;;;;;38.93;16.83;;;8.00;99.90;;;;;;4155809;28;20045;-62
2021/04/13 04:10:44;;;;;;;32.67;16.83;;;8.00;99.90;;;;;;4156731;28;20041;-60
2021/04/13 04:12:56;;;;;;;36.53;18.63;;;8.00;99.90;;;;;;4155706;28;20063;-57
2021/04/13 04:15:05;;;;;;;33.23;16.23;;;8.00;99.90;;;;;;4155955;28;20042;-62
2021/04/13 04:17:14;;;;;;;35.53;17.33;;;8.10;99.90;;;;;;4155725;28;20033;-59
2021/04/13 04:19:24;;;;;;;37.00;17.63;;;8.10;99.90;;;;;;4156628;28;20096;-61
2021/04/13 04:21:38;;;;;;;38.57;18.23;;;8.20;99.90;;;;;;4155234;28;20087;-60
2021/04/13 04:23:39;;;;;;;36.77;17.10;;;8.30;99.90;;;;;;4155849;28;20080;-60
2021/04/13 04:25:45;;;;;;;43.80;18.20;;;8.30;99.90;;;;;;4155371;28;20034;-64
2021/04/13 04:27:47;;;;;;;35.57;18.03;;;8.30;99.90;;;;;;4156488;28;20092;-60
2021/04/13 04:30:03;;;;;;;38.90;18.30;;;8.40;99.90;;;;;;4155211;28;20160;-63
2021/04/13 04:32:29;;;;;;;39.23;19.33;;;8.40;99.90;;;;;;4156422;28;20058;-63
2021/04/13 04:34:31;;;;;;;44.83;20.03;;;8.40;99.90;;;;;;4159200;28;20194;-62
2021/04/13 04:36:43;;;;;;;40.97;18.27;;;8.50;99.90;;;;;;4157096;28;20826;-60
2021/04/13 04:38:45;;;;;;;34.57;19.43;;;8.50;99.90;;;;;;4156626;28;20448;-63
2021/04/13 04:40:49;;;;;;;39.93;19.63;;;8.60;99.90;;;;;;4158402;28;20033;-67
2021/04/13 04:42:56;;;;;;;36.40;18.40;;;8.60;99.90;;;;;;4158161;28;20029;-66
2021/04/13 04:45:13;;;;;;;38.20;19.97;;;8.80;99.90;;;;;;4158971;28;20111;-67
2021/04/13 04:47:35;;;;;;;51.57;19.23;;;8.80;99.90;;;;;;4158328;28;20485;-65
2021/04/13 04:49:40;;;;;;;44.73;18.97;;;9.00;99.90;;;;;;4158459;28;20114;-66
2021/04/13 04:51:42;;;;;;;41.93;19.10;;;9.00;99.90;;;;;;4157730;28;20041;-65
2021/04/13 04:53:46;;;;;;;36.10;19.30;;;9.10;99.90;;;;;;4157994;28;20180;-61
2021/04/13 04:55:49;;;;;;;65.00;22.03;;;9.20;99.90;;;;;;4158280;28;21687;-61
2021/04/13 04:57:50;;;;;;;42.37;19.73;;;9.20;99.90;;;;;;4158812;28;20432;-67
2021/04/13 04:59:51;;;;;;;42.20;19.30;;;9.30;99.90;;;;;;4158103;28;20033;-61
2021/04/13 05:01:52;;;;;;;44.97;19.37;;;9.30;99.90;;;;;;4159137;28;20045;-62
2021/04/13 05:03:53;;;;;;;39.70;19.07;;;9.30;99.90;;;;;;4157446;28;20025;-67
2021/04/13 05:05:56;;;;;;;53.50;21.90;;;9.30;99.90;;;;;;4159161;28;20829;-65
2021/04/13 05:07:57;;;;;;;55.97;21.23;;;9.40;99.90;;;;;;4157554;28;20826;-67
2021/04/13 05:09:58;;;;;;;43.83;19.47;;;9.40;99.90;;;;;;4158820;28;20034;-67
2021/04/13 05:12:00;;;;;;;51.73;21.47;;;9.60;99.90;;;;;;4157922;28;20087;-67
2021/04/13 05:14:01;;;;;;;41.30;21.67;;;9.60;99.90;;;;;;4158795;28;20033;-70
2021/04/13 05:16:02;;;;;;;41.80;21.40;;;9.60;99.90;;;;;;4157610;28;20038;-66
2021/04/13 05:18:04;;;;;;;60.27;23.57;;;9.50;99.90;;;;;;4158326;28;20079;-70
2021/04/13 05:20:06;;;;;;;44.63;21.57;;;9.60;99.90;;;;;;4158513;28;20029;-69
2021/04/13 05:22:07;;;;;;;46.47;23.10;;;9.50;99.90;;;;;;4158396;28;20068;-68
2021/04/13 05:24:10;;;;;;;51.30;22.70;;;9.60;99.90;;;;;;4158149;28;20075;-69
2021/04/13 05:26:12;;;;;;;53.33;22.20;;;9.70;99.90;;;;;;4157748;28;20041;-68
2021/04/13 05:28:14;;;;;;;52.50;22.97;;;9.70;99.90;;;;;;4158735;28;21048;-69
2021/04/13 05:30:16;;;;;;;43.80;22.63;;;9.80;99.90;;;;;;4157557;28;20037;-65
2021/04/13 05:32:17;;;;;;;53.80;22.27;;;9.90;99.90;;;;;;4158674;28;20374;-68
2021/04/13 05:34:18;;;;;;;60.87;20.57;;;10.00;99.90;;;;;;4157502;28;20502;-63
2021/04/13 05:36:20;;;;;;;51.77;22.10;;;10.10;99.90;;;;;;4158419;28;20045;-68
2021/04/13 05:38:28;;;;;;;48.73;21.20;;;10.20;99.90;;;;;;4157375;28;20037;-63
2021/04/13 05:40:32;;;;;;;44.10;20.70;;;10.20;99.90;;;;;;4158602;28;20068;-65
2021/04/13 05:42:35;;;;;;;43.60;19.37;;;10.30;99.90;;;;;;4156854;28;20493;-62
2021/04/13 05:44:36;;;;;;;48.80;22.33;;;10.40;99.90;;;;;;4157927;28;20049;-64
2021/04/13 05:46:38;;;;;;;47.43;20.07;;;10.50;99.90;;;;;;4157339;28;20436;-62
2021/04/13 05:48:39;;;;;;;46.13;20.90;;;10.50;99.90;;;;;;4158779;28;20041;-62
2021/04/13 05:50:42;;;;;;;77.00;42.37;;;10.60;99.90;;;;;;4157252;28;20428;-62
2021/04/13 05:52:43;;;;;;;52.50;23.13;;;10.70;99.90;;;;;;4158066;28;20600;-63
2021/04/13 05:54:44;;;;;;;42.97;19.57;;;10.80;99.90;;;;;;4157464;28;20048;-63
2021/04/13 05:56:45;;;;;;;47.93;20.50;;;10.90;99.90;;;;;;4158169;28;20059;-63
2021/04/13 05:58:52;;;;;;;55.13;19.97;;;10.90;99.90;;;;;;4157345;28;20084;-63
2021/04/13 06:00:56;;;;;;;48.10;20.73;;;11.00;99.90;;;;;;4157869;28;20029;-63
2021/04/13 06:02:58;;;;;;;49.67;20.40;;;11.00;99.90;;;;;;4157875;28;20035;-64
2021/04/13 06:05:01;;;;;;;42.13;19.83;;;11.00;99.90;;;;;;4157217;28;20026;-64
2021/04/13 06:07:02;;;;;;;49.23;20.07;;;11.00;99.90;;;;;;4158157;28;20524;-63
2021/04/13 06:09:03;;;;;;;44.90;20.23;;;11.20;99.90;;;;;;4156943;28;20030;-64
2021/04/13 06:11:06;;;;;;;47.33;19.90;;;11.20;99.90;;;;;;4157786;28;20046;-63
2021/04/13 06:13:08;;;;;;;48.73;21.33;;;11.20;99.90;;;;;;4156800;28;20060;-62
2021/04/13 06:15:12;;;;;;;49.83;21.03;;;11.30;99.90;;;;;;4158564;28;20033;-62
2021/04/13 06:17:13;;;;;;;50.27;19.83;;;11.40;99.90;;;;;;4157331;28;20041;-63
2021/04/13 06:19:15;;;;;;;41.10;20.73;;;11.40;99.90;;;;;;4156481;28;20104;-63
2021/04/13 06:21:16;;;;;;;41.03;17.97;;;11.50;99.90;;;;;;4156672;28;20751;-63
2021/04/13 06:23:17;;;;;;;32.17;17.60;;;11.40;99.90;;;;;;4157615;28;20091;-63
2021/04/13 06:25:21;;;;;;;49.50;19.30;;;11.50;99.90;;;;;;4156746;28;20498;-67
2021/04/13 06:27:22;;;;;;;48.13;18.43;;;11.70;99.90;;;;;;4158010;28;20072;-63
2021/04/13 06:29:23;;;;;;;49.27;19.27;;;11.70;99.90;;;;;;4155288;28;20578;-63
2021/04/13 06:31:24;;;;;;;41.57;17.57;;;11.70;99.80;;;;;;4157663;28;20080;-63
2021/04/13 06:33:27;;;;;;;45.60;17.77;;;11.60;99.90;;;;;;4156637;28;20080;-64
2021/04/13 06:35:29;;;;;;;42.43;21.37;;;11.60;99.90;;;;;;4156643;28;20045;-64
2021/04/13 06:37:30;;;;;;;46.03;18.77;;;11.60;99.80;;;;;;4157088;28;20995;-64
2021/04/13 06:39:34;;;;;;;47.73;17.27;;;11.50;99.70;;;;;;4156364;28;20094;-64
2021/04/13 06:42:04;;;;;;;47.27;17.70;;;11.40;99.80;;;;;;4156889;28;20017;-63
2021/04/13 06:44:08;;;;;;;41.20;18.97;;;11.40;99.90;;;;;;4156627;28;20033;-64
2021/04/13 06:46:20;;;;;;;43.97;17.97;;;11.30;99.90;;;;;;4156950;28;20088;-63
2021/04/13 06:48:59;;;;;;;40.13;17.60;;;11.30;99.90;;;;;;4156235;28;20552;-62
2021/04/13 06:51:49;;;;;;;34.70;15.43;;;11.30;99.90;;;;;;4121523;28;20065;-67
2021/04/13 06:53:53;;;;;;;31.53;14.90;;;11.30;99.90;;;;;;4143286;28;20112;-63
2021/04/13 06:56:06;;;;;;;35.73;18.20;;;11.30;99.90;;;;;;4155613;28;20029;-63
2021/04/13 06:58:35;;;;;;;22.70;12.13;;;11.30;99.90;;;;;;4155959;28;20551;-65
2021/04/13 07:01:09;;;;;;;36.53;16.20;;;11.40;99.80;;;;;;4155360;28;20083;-63
2021/04/13 07:03:26;;;;;;;27.77;14.60;;;11.40;99.70;;;;;;4133537;28;20046;-63
2021/04/13 07:05:49;;;;;;;33.50;14.20;;;11.40;99.90;;;;;;4155478;28;20025;-66
2021/04/13 07:08:17;;;;;;;21.53;13.17;;;11.40;99.80;;;;;;4156756;28;20025;-63
2021/04/13 07:10:54;;;;;;;24.30;13.17;;;11.40;99.90;;;;;;4156763;28;20445;-63
2021/04/13 07:13:27;;;;;;;23.03;12.97;;;11.50;99.80;;;;;;4155808;28;20037;-64
2021/04/13 07:15:44;;;;;;;22.47;12.50;;;11.70;99.70;;;;;;4156379;28;20041;-68
2021/04/13 07:18:07;;;;;;;25.13;12.83;;;11.80;99.30;;;;;;4156582;28;20033;-61
2021/04/13 07:20:20;;;;;;;23.37;13.13;;;11.90;99.40;;;;;;4157272;28;20049;-62
2021/04/13 07:22:38;;;;;;;30.57;14.40;;;11.90;99.20;;;;;;4155997;28;20037;-62
2021/04/13 07:24:53;;;;;;;32.37;15.00;;;12.10;99.00;;;;;;4156924;28;20045;-64
2021/04/13 07:27:03;;;;;;;26.67;13.93;;;12.10;98.70;;;;;;4155860;28;20030;-63
2021/04/13 07:29:18;;;;;;;37.53;15.15;;;12.20;98.70;;;;;;4157586;28;20037;-62
2021/04/13 07:31:26;;;;;;;24.47;13.17;;;12.20;98.70;;;;;;4156463;28;20099;-69
2021/04/13 07:33:32;;;;;;;33.77;14.40;;;12.30;98.50;;;;;;4156684;28;20497;-67
2021/04/13 07:35:36;;;;;;;27.53;14.57;;;12.40;98.40;;;;;;4155783;28;20033;-63
2021/04/13 07:37:42;;;;;;;30.47;15.93;;;12.50;98.20;;;;;;4157116;28;20425;-63
2021/04/13 07:39:47;;;;;;;37.43;18.40;;;12.50;98.20;;;;;;4155692;28;21028;-62
2021/04/13 07:41:55;;;;;;;42.00;18.43;;;12.60;98.20;;;;;;4156777;28;20040;-63
2021/04/13 07:44:21;;;;;;;31.00;17.43;;;12.60;98.20;;;;;;4156074;28;20034;-63
2021/04/13 07:46:56;;;;;;;39.43;18.70;;;12.60;98.40;;;;;;4156588;28;20033;-63
2021/04/13 07:49:01;;;;;;;35.80;16.40;;;12.60;98.50;;;;;;4155867;28;20095;-63
2021/04/13 07:51:19;;;;;;;35.30;17.20;;;12.70;98.40;;;;;;4156517;28;20041;-62
2021/04/13 07:54:03;;;;;;;32.53;16.80;;;12.70;98.40;;;;;;4156564;28;20437;-62
2021/04/13 07:56:07;;;;;;;38.77;19.07;;;12.70;98.60;;;;;;4155626;28;20021;-63
2021/04/13 07:58:27;;;;;;;33.87;19.37;;;12.80;98.50;;;;;;4156755;28;20107;-63
2021/04/13 08:00:38;;;;;;;45.20;21.83;;;12.90;98.60;;;;;;4155411;28;20026;-63
2021/04/13 08:02:41;;;;;;;37.50;19.27;;;12.90;98.30;;;;;;4156902;28;20712;-63
2021/04/13 08:04:47;;;;;;;39.47;17.53;;;12.90;98.20;;;;;;4155618;28;20037;-63
2021/04/13 08:07:04;;;;;;;42.23;19.20;;;13.00;98.10;;;;;;4156037;28;20107;-62
2021/04/13 08:09:23;;;;;;;35.73;15.67;;;13.00;98.00;;;;;;4158809;28;20071;-63
2021/04/13 08:11:24;;;;;;;28.70;13.57;;;13.10;97.80;;;;;;4159680;28;20041;-63
2021/04/13 08:13:29;;;;;;;28.87;14.67;;;13.10;97.60;;;;;;4158952;28;20564;-63
2021/04/13 08:15:48;;;;;;;30.50;14.10;;;13.10;97.50;;;;;;4159800;28;20029;-63
2021/04/13 08:17:59;;;;;;;25.90;13.53;;;13.20;97.40;;;;;;4158588;28;20484;-63
2021/04/13 08:20:11;;;;;;;28.17;14.52;;;13.20;97.30;;;;;;4159876;28;20094;-64
2021/04/13 08:22:19;;;;;;;35.10;15.73;;;13.20;97.40;;;;;;4157855;28;20107;-64
2021/04/13 08:24:40;;;;;;;43.13;17.43;;;13.30;97.20;;;;;;4159570;28;20099;-63
2021/04/13 08:26:44;;;;;;;50.37;21.47;;;13.30;97.00;;;;;;4158208;28;20100;-62
2021/04/13 08:28:58;;;;;;;44.40;18.33;;;13.40;96.70;;;;;;4159859;28;20095;-63
2021/04/13 08:34:10;;;;;;;34.03;15.97;;;13.50;96.60;;;;;;4159511;28;20531;-64
2021/04/13 08:36:21;;;;;;;30.80;14.50;;;13.70;96.20;;;;;;4158136;28;20500;-63
2021/04/13 08:38:57;;;;;;;;;;;13.80;95.90;;;;;;4160211;28;20033;-64
2021/04/13 08:41:04;;;;;;;31.73;15.50;;;13.90;95.80;;;;;;4140279;28;19953;-64
2021/04/13 08:43:08;;;;;;;22.60;12.87;;;14.10;95.40;;;;;;4151279;28;20091;-63
2021/04/13 08:45:29;;;;;;;23.90;11.97;;;14.20;94.90;;;;;;4159081;28;20493;-64
2021/04/13 08:47:53;;;;;;;35.23;16.33;;;14.20;94.30;;;;;;4159081;28;20029;-63
2021/04/13 08:50:00;;;;;;;31.73;15.43;;;14.40;93.80;;;;;;4158773;28;20516;-64
2021/04/13 08:52:16;;;;;;;23.10;12.50;;;14.40;93.50;;;;;;4157878;28;20079;-62
2021/04/13 08:54:21;;;;;;;34.87;14.37;;;14.40;93.20;;;;;;4156757;28;20101;-63
2021/04/13 08:56:24;;;;;;;26.90;11.23;;;14.40;93.20;;;;;;4157678;28;20025;-64
2021/04/13 08:58:37;;;;;;;22.70;12.30;;;14.50;93.10;;;;;;4158766;28;20033;-63
2021/04/13 09:00:45;;;;;;;23.93;11.17;;;14.70;92.50;;;;;;4156974;28;20096;-63
2021/04/13 09:02:59;;;;;;;24.93;12.10;;;14.80;92.10;;;;;;4158709;28;20041;-63
2021/04/13 09:05:09;;;;;;;21.50;11.13;;;14.90;92.10;;;;;;4158154;28;20384;-62
2021/04/13 09:07:29;;;;;;;23.27;10.80;;;15.00;91.60;;;;;;4158743;28;20368;-62
2021/04/13 09:09:41;;;;;;;24.90;11.83;;;15.10;90.90;;;;;;4157576;28;20271;-63
2021/04/13 09:11:58;;;;;;;23.43;11.00;;;15.20;90.90;;;;;;4158492;28;20321;-63
2021/04/13 09:14:04;;;;;;;25.20;11.47;;;15.40;90.20;;;;;;4157742;28;20045;-62
2021/04/13 09:16:05;;;;;;;34.47;12.87;;;15.60;90.20;;;;;;4159112;28;20053;-62
2021/04/13 09:18:25;;;;;;;25.13;11.80;;;15.70;89.90;;;;;;4157482;28;20026;-63
2021/04/13 09:20:43;;;;;;;24.65;11.68;;;15.90;88.60;;;;;;4158179;28;20115;-62
2021/04/13 09:22:50;;;;;;;22.20;11.93;;;16.00;87.80;;;;;;4155650;28;20046;-62
2021/04/13 09:25:08;;;;;;;24.17;12.10;;;16.10;87.50;;;;;;4158501;28;20076;-63
2021/04/13 09:27:41;;;;;;;28.30;12.97;;;16.30;86.20;;;;;;4157351;28;20551;-69
2021/04/13 09:29:50;;;;;;;31.97;13.30;;;16.40;84.40;;;;;;4158784;28;20045;-62
2021/04/13 09:31:51;;;;;;;25.05;12.77;;;16.40;84.90;;;;;;4156728;28;20038;-62
2021/04/13 09:34:06;;;;;;;29.73;13.10;;;16.50;84.80;;;;;;4158581;28;20049;-66
2021/04/13 09:36:37;;;;;;;29.05;12.60;;;16.60;83.70;;;;;;4157132;28;20037;-69
2021/04/13 09:39:15;;;;;;;29.67;13.38;;;16.70;82.20;;;;;;4157076;28;20187;-63
2021/04/13 09:41:25;;;;;;;27.45;13.43;;;16.80;81.00;;;;;;4157187;28;20421;-63
2021/04/13 09:43:48;;;;;;;29.65;12.75;;;16.80;81.40;;;;;;4157824;28;20385;-62
2021/04/13 09:45:58;;;;;;;24.92;12.45;;;16.90;80.50;;;;;;4156405;28;20068;-62
2021/04/13 09:48:23;;;;;;;21.38;12.00;;;17.00;80.80;;;;;;4157271;28;20087;-62
2021/04/13 09:50:44;;;;;;;25.25;12.27;;;17.00;80.00;;;;;;4157669;28;20037;-65
2021/04/13 09:53:12;;;;;;;28.92;12.13;;;17.10;78.90;;;;;;4156781;28;20534;-64
2021/04/13 09:55:25;;;;;;;30.17;13.13;;;17.20;78.60;;;;;;4158174;28;20041;-62
2021/04/13 09:57:32;;;;;;;25.08;13.63;;;17.30;77.60;;;;;;4156555;28;20107;-62
2021/04/13 09:59:52;;;;;;;25.92;12.88;;;17.30;77.70;;;;;;4158294;28;20055;-62
2021/04/13 10:02:31;;;;;;;33.10;12.75;;;17.30;75.60;;;;;;4157169;28;20021;-61
2021/04/13 10:04:52;;;;;;;25.48;14.02;;;17.30;75.50;;;;;;4157798;28;20442;-62
2021/04/13 10:07:24;;;;;;;29.58;13.25;;;17.50;75.80;;;;;;4156563;28;20822;-62
2021/04/13 10:09:29;;;;;;;28.10;12.90;;;17.50;74.50;;;;;;4157251;28;20026;-63
2021/04/13 10:11:41;;;;;;;22.23;13.25;;;17.60;75.10;;;;;;4156560;28;20485;-65
2021/04/13 10:14:08;;;;;;;29.55;14.65;;;17.80;74.10;;;;;;4157629;28;20087;-65
2021/04/13 10:16:31;;;;;;;29.02;13.88;;;17.80;72.70;;;;;;4157708;28;20030;-66
2021/04/13 10:19:09;;;;;;;25.77;14.32;;;17.70;72.70;;;;;;4157322;28;20037;-63
2021/04/13 10:21:16;;;;;;;27.20;12.68;;;17.80;73.00;;;;;;4158146;28;20083;-63
2021/04/13 10:23:32;;;;;;;29.88;12.57;;;17.70;73.10;;;;;;4155083;28;20681;-63
2021/04/13 10:25:36;;;;;;;29.52;12.80;;;17.80;72.20;;;;;;4157418;28;20600;-62
2021/04/13 10:28:19;;;;;;;21.83;11.85;;;17.60;72.30;;;;;;4156292;28;20571;-64
2021/04/13 10:30:38;;;;;;;27.10;12.15;;;17.70;71.10;;;;;;4137169;28;20068;-62
2021/04/13 10:33:10;;;;;;;27.80;12.18;;;17.80;71.40;;;;;;4156468;28;20037;-63
2021/04/13 10:35:31;;;;;;;24.85;12.05;;;17.80;70.40;;;;;;4156060;28;20816;-63
2021/04/13 10:38:09;;;;;;;32.25;12.68;;;17.80;70.10;;;;;;4156565;28;20091;-63
2021/04/13 10:40:32;;;;;;;21.50;11.27;;;17.80;70.40;;;;;;4157095;28;20029;-66
2021/04/13 10:42:33;;;;;;;27.67;14.00;;;17.90;70.30;;;;;;4157141;28;20154;-65
2021/04/13 10:45:12;;;;;;;24.98;13.35;;;18.00;70.40;;;;;;4156678;28;20359;-64
2021/04/13 10:47:32;;;;;;;27.67;12.55;;;18.20;69.10;;;;;;4122465;28;20045;-63
2021/04/13 10:50:05;;;;;;;26.90;12.70;;;18.20;68.60;;;;;;4140764;28;20053;-63
2021/04/13 10:52:36;;;;;;;24.40;12.48;;;18.20;68.50;;;;;;4158139;28;20321;-63
2021/04/13 10:55:08;;;;;;;30.30;14.38;;;18.30;69.10;;;;;;4156396;28;20052;-64
2021/04/13 10:57:29;;;;;;;23.23;11.90;;;18.20;68.70;;;;;;4156754;28;20484;-62
2021/04/13 11:00:07;;;;;;;25.65;11.80;;;18.30;69.00;;;;;;4156847;28;20033;-64
2021/04/13 11:02:27;;;;;;;24.98;13.05;;;18.40;68.10;;;;;;4154610;28;20503;-63
2021/04/13 11:05:03;;;;;;;32.22;12.93;;;18.50;67.80;;;;;;4157393;28;20091;-64
2021/04/13 11:07:22;;;;;;;23.10;12.15;;;18.40;68.20;;;;;;4155714;28;20489;-64
2021/04/13 11:09:53;;;;;;;28.90;11.02;;;18.40;68.20;;;;;;4157144;28;20029;-63
2021/04/13 11:12:21;;;;;;;32.15;9.57;;;18.30;68.00;;;;;;4155815;28;20033;-64
2021/04/13 11:14:36;;;;;;;20.55;7.43;;;18.30;68.10;;;;;;4156967;28;20045;-63
2021/04/13 11:17:01;;;;;;;20.05;8.88;;;18.30;67.70;;;;;;4156037;28;20103;-63
2021/04/13 11:19:11;;;;;;;22.65;8.80;;;18.20;66.00;;;;;;4137325;28;20088;-63
2021/04/13 11:21:15;;;;;;;18.85;8.15;;;18.10;67.30;;;;;;4156790;28;20033;-64
2021/04/13 11:23:24;;;;;;;17.25;7.88;;;18.10;67.60;;;;;;4156408;28;20030;-63
2021/04/13 11:25:53;;;;;;;16.67;8.30;;;18.00;67.70;;;;;;4156629;28;20095;-63
2021/04/13 11:28:16;;;;;;;19.20;8.98;;;18.00;67.80;;;;;;4155943;28;20140;-64
2021/04/13 11:30:38;;;;;;;16.60;8.25;;;17.90;68.20;;;;;;4156712;28;20179;-63
2021/04/13 11:32:54;;;;;;;17.60;7.15;;;17.80;68.10;;;;;;4155163;28;20128;-63